createdAt,value
2023-03-21T00:00:16.381Z,10.68
2023-03-21T00:02:42.874Z,10.63
2023-03-21T00:05:15.835Z,10.63
2023-03-21T00:07:42.800Z,10.69
2023-03-21T00:10:16.501Z,10.71
2023-03-21T00:12:44.826Z,10.72
2023-03-21T00:15:12.984Z,10.73
2023-03-21T00:17:39.784Z,10.67
2023-03-21T00:20:08.306Z,10.75
2023-03-21T00:22:35.796Z,10.76
2023-03-21T00:25:02.718Z,10.73
2023-03-21T00:27:47.509Z,10.74
2023-03-21T00:30:16.257Z,10.81
2023-03-21T00:32:55.151Z,10.80
2023-03-21T00:35:53.449Z,10.87
2023-03-21T00:38:09.776Z,10.87
2023-03-21T00:40:43.785Z,10.88
2023-03-21T00:43:19.492Z,10.92
2023-03-21T00:45:46.837Z,10.92
2023-03-21T00:48:13.950Z,10.92
2023-03-21T00:50:42.162Z,10.93
2023-03-21T00:53:08.900Z,10.88
2023-03-21T00:55:35.699Z,10.82
2023-03-21T00:58:02.779Z,10.86
2023-03-21T01:00:30.013Z,10.91
2023-03-21T01:03:14.133Z,10.92
2023-03-21T01:06:09.976Z,10.92
2023-03-21T01:08:53.209Z,10.99
2023-03-21T01:11:24.677Z,11.01
2023-03-21T01:13:57.935Z,11.00
2023-03-21T01:20:21.680Z,10.89
2023-03-21T01:22:48.089Z,10.95
2023-03-21T01:25:22.453Z,10.99
2023-03-21T01:27:49.139Z,10.98
2023-03-21T01:30:21.544Z,10.99
2023-03-21T01:32:50.099Z,10.97
2023-03-21T01:35:16.620Z,10.84
2023-03-21T01:37:43.581Z,10.77
2023-03-21T01:40:18.165Z,10.73
2023-03-21T01:42:44.627Z,10.78
2023-03-21T01:45:48.210Z,10.81
2023-03-21T01:48:15.779Z,10.75
2023-03-21T01:50:43.223Z,10.77
2023-03-21T01:53:10.800Z,10.82
2023-03-21T01:55:38.286Z,10.83
2023-03-21T01:58:07.713Z,10.86
2023-03-21T02:00:36.438Z,10.86
2023-03-21T02:03:15.310Z,10.90
2023-03-21T02:05:55.883Z,10.68
2023-03-21T02:08:30.554Z,10.77
2023-03-21T02:11:05.218Z,10.82
2023-03-21T02:13:31.719Z,10.87
2023-03-21T02:16:05.759Z,10.82
2023-03-21T02:18:48.111Z,10.87
2023-03-21T02:21:33.365Z,10.91
2023-03-21T02:24:12.881Z,10.92
2023-03-21T02:27:03.965Z,10.93
2023-03-21T02:29:55.794Z,10.93
2023-03-21T02:32:41.671Z,10.94
2023-03-21T02:35:08.030Z,10.96
2023-03-21T02:37:55.237Z,10.94
2023-03-21T02:40:35.506Z,11.00
2023-03-21T02:43:22.167Z,11.01
2023-03-21T02:45:58.381Z,10.97
2023-03-21T02:48:44.395Z,10.94
2023-03-21T02:51:15.831Z,10.91
2023-03-21T02:53:49.618Z,10.91
2023-03-21T02:56:17.360Z,10.83
2023-03-21T02:58:44.459Z,10.82
2023-03-21T03:01:11.026Z,10.80
2023-03-21T03:03:39.476Z,10.74
2023-03-21T03:06:29.310Z,10.72
2023-03-21T03:09:38.698Z,10.64
2023-03-21T03:12:17.178Z,10.66
2023-03-21T03:15:03.472Z,10.71
2023-03-21T03:17:42.953Z,10.69
2023-03-21T03:20:41.071Z,10.66
2023-03-21T03:23:28.162Z,10.46
2023-03-21T03:26:00.734Z,10.43
2023-03-21T03:28:34.412Z,10.52
2023-03-21T03:31:09.140Z,10.55
2023-03-21T03:33:41.438Z,10.60
2023-03-21T03:36:18.796Z,10.57
2023-03-21T03:38:57.639Z,10.57
2023-03-21T03:41:27.077Z,10.56
2023-03-21T03:43:57.794Z,10.59
2023-03-21T03:46:31.789Z,10.54
2023-03-21T03:49:07.370Z,10.45
2023-03-21T03:51:43.932Z,10.40
2023-03-21T03:54:19.525Z,10.34
2023-03-21T03:56:46.850Z,10.26
2023-03-21T03:59:19.424Z,10.11
2023-03-21T04:01:46.112Z,9.94
2023-03-21T04:04:16.738Z,9.80
2023-03-21T04:06:51.540Z,9.65
2023-03-21T04:09:22.119Z,9.48
2023-03-21T04:11:51.596Z,9.33
2023-03-21T04:14:18.029Z,9.20
2023-03-21T04:16:44.754Z,9.07
2023-03-21T04:19:11.154Z,9.01
2023-03-21T04:21:37.948Z,8.96
2023-03-21T04:24:04.921Z,8.92
2023-03-21T04:26:33.560Z,8.86
2023-03-21T04:29:00.855Z,8.80
2023-03-21T04:31:30.998Z,8.73
2023-03-21T04:33:59.540Z,8.64
2023-03-21T04:36:28.668Z,8.55
2023-03-21T04:39:01.589Z,8.50
2023-03-21T04:41:28.859Z,8.47
2023-03-21T04:43:56.028Z,8.41
2023-03-21T04:46:23.140Z,8.39
2023-03-21T04:48:49.680Z,8.43
2023-03-21T04:51:16.523Z,8.48
2023-03-21T04:53:45.745Z,8.59
2023-03-21T04:56:12.394Z,8.68
2023-03-21T04:58:40.617Z,8.77
2023-03-21T05:01:08.169Z,8.89
2023-03-21T05:03:39.846Z,8.99
2023-03-21T05:06:08.582Z,9.11
2023-03-21T05:08:38.336Z,9.18
2023-03-21T05:11:05.521Z,9.21
2023-03-21T05:13:31.946Z,9.23
2023-03-21T05:15:58.330Z,9.27
2023-03-21T05:18:25.054Z,9.32
2023-03-21T05:20:54.138Z,9.35
2023-03-21T05:23:24.304Z,9.28
2023-03-21T05:25:51.135Z,9.32
2023-03-21T05:28:20.372Z,9.42
2023-03-21T05:30:47.108Z,9.47
2023-03-21T05:33:13.821Z,9.49
2023-03-21T05:35:40.678Z,9.50
2023-03-21T05:38:07.311Z,9.47
2023-03-21T05:40:33.719Z,9.46
2023-03-21T05:43:00.431Z,9.47
2023-03-21T05:45:27.273Z,9.41
2023-03-21T05:47:53.781Z,9.32
2023-03-21T05:50:20.365Z,9.27
2023-03-21T05:52:46.804Z,9.22
2023-03-21T05:55:13.496Z,9.26
2023-03-21T05:57:41.003Z,9.31
2023-03-21T06:00:08.728Z,9.31
2023-03-21T06:02:35.320Z,9.39
2023-03-21T06:05:01.863Z,9.49
2023-03-21T06:07:28.257Z,9.59
2023-03-21T06:09:54.776Z,9.71
2023-03-21T06:12:21.322Z,9.54
2023-03-21T06:14:47.681Z,9.64
2023-03-21T06:17:14.123Z,9.73
2023-03-21T06:19:40.577Z,9.97
2023-03-21T06:22:07.432Z,10.20
2023-03-21T06:24:33.811Z,10.65
2023-03-21T06:27:01.898Z,11.16
2023-03-21T06:29:29.343Z,11.65
2023-03-21T06:31:57.122Z,11.95
2023-03-21T06:34:23.562Z,11.92
2023-03-21T06:36:52.061Z,11.91
2023-03-21T06:39:18.542Z,11.98
2023-03-21T06:41:45.021Z,11.91
2023-03-21T06:44:11.612Z,11.90
2023-03-21T06:46:38.088Z,12.02
2023-03-21T06:49:04.721Z,12.15
2023-03-21T06:51:31.435Z,12.19
2023-03-21T06:53:57.852Z,12.26
2023-03-21T06:56:24.269Z,12.29
2023-03-21T06:58:50.827Z,12.31
2023-03-21T07:01:17.322Z,12.34
2023-03-21T07:03:43.972Z,12.38
2023-03-21T07:06:11.904Z,12.65
2023-03-21T07:08:39.419Z,12.93
2023-03-21T07:11:06.449Z,13.26
2023-03-21T07:13:33.685Z,13.44
2023-03-21T07:16:00.536Z,13.43
2023-03-21T07:18:27.308Z,13.94
2023-03-21T07:20:53.823Z,14.28
2023-03-21T07:23:22.439Z,14.77
2023-03-21T07:25:50.940Z,15.17
2023-03-21T07:28:18.044Z,15.45
2023-03-21T07:30:45.811Z,15.72
2023-03-21T07:33:12.982Z,16.12
2023-03-21T07:35:39.715Z,16.08
2023-03-21T07:38:06.708Z,16.31
2023-03-21T07:40:33.508Z,16.17
2023-03-21T07:43:00.146Z,16.18
2023-03-21T07:45:27.367Z,16.39
2023-03-21T07:47:54.468Z,16.19
2023-03-21T07:50:20.995Z,16.52
2023-03-21T07:52:47.667Z,17.71
2023-03-21T07:55:14.127Z,18.64
2023-03-21T07:57:41.040Z,19.36
2023-03-21T08:00:08.533Z,20.34
2023-03-21T08:02:35.021Z,21.12
2023-03-21T08:05:01.478Z,22.27
2023-03-21T08:07:27.928Z,23.10
2023-03-21T08:09:54.663Z,23.37
2023-03-21T08:12:21.144Z,23.54
2023-03-21T08:14:47.780Z,23.73
2023-03-21T08:17:14.226Z,23.65
2023-03-21T08:19:40.815Z,23.06
2023-03-21T08:22:07.272Z,22.63
2023-03-21T08:24:34.105Z,21.28
2023-03-21T08:27:01.576Z,20.74
2023-03-21T08:29:28.270Z,20.80
2023-03-21T08:31:54.714Z,21.46
2023-03-21T08:34:22.998Z,22.38
2023-03-21T08:36:49.874Z,23.45
2023-03-21T08:39:16.223Z,23.96
2023-03-21T08:41:42.687Z,23.80
2023-03-21T08:44:10.680Z,23.78
2023-03-21T08:46:37.203Z,24.84
2023-03-21T08:49:03.641Z,26.17
2023-03-21T08:51:30.026Z,26.70
2023-03-21T08:53:56.657Z,26.25
2023-03-21T08:56:23.117Z,26.67
2023-03-21T08:58:49.864Z,26.73
2023-03-21T09:01:16.325Z,26.32
2023-03-21T09:03:43.528Z,27.09
2023-03-21T09:06:13.399Z,27.65
2023-03-21T09:08:42.186Z,27.65
2023-03-21T09:11:10.384Z,27.81
2023-03-21T09:13:36.955Z,27.33
2023-03-21T09:16:05.222Z,27.50
2023-03-21T09:18:47.461Z,27.50
2023-03-21T09:21:16.504Z,27.29
2023-03-21T09:23:45.001Z,27.70
2023-03-21T09:26:12.557Z,26.04
2023-03-21T09:28:40.499Z,24.99
2023-03-21T09:31:11.576Z,24.12
2023-03-21T09:33:42.430Z,23.53
2023-03-21T09:36:12.089Z,24.22
2023-03-21T09:38:40.601Z,24.14
2023-03-21T09:41:29.999Z,23.45
2023-03-21T09:44:08.067Z,22.90
2023-03-21T09:47:05.375Z,23.54
2023-03-21T09:49:38.246Z,24.12
2023-03-21T09:52:16.192Z,23.17
2023-03-21T09:54:44.665Z,22.80
2023-03-21T09:57:38.058Z,22.51
2023-03-21T10:00:09.313Z,22.86
2023-03-21T10:02:39.472Z,22.03
2023-03-21T10:05:20.982Z,21.65
2023-03-21T10:07:52.971Z,21.39
2023-03-21T10:10:27.838Z,21.26
2023-03-21T10:12:56.293Z,20.78
2023-03-21T10:15:25.920Z,20.92
2023-03-21T10:18:02.058Z,20.86
2023-03-21T10:20:37.053Z,21.16
2023-03-21T10:23:06.946Z,21.08
2023-03-21T10:25:41.099Z,21.47
2023-03-21T10:28:13.530Z,21.20
2023-03-21T10:30:48.791Z,21.42
2023-03-21T10:33:23.221Z,21.98
2023-03-21T10:35:53.629Z,21.70
2023-03-21T10:38:23.310Z,21.60
2023-03-21T10:40:50.237Z,21.61
2023-03-21T10:43:25.812Z,20.12
2023-03-21T10:45:54.134Z,20.17
2023-03-21T10:48:21.698Z,20.21
2023-03-21T10:50:51.707Z,20.50
2023-03-21T10:53:22.677Z,20.94
2023-03-21T10:55:54.251Z,21.05
2023-03-21T10:58:27.244Z,21.17
2023-03-21T11:01:00.799Z,21.40
2023-03-21T11:03:31.420Z,20.73
2023-03-21T11:06:28.377Z,20.27
2023-03-21T11:09:00.413Z,20.39
2023-03-21T11:11:33.252Z,20.50
2023-03-21T11:14:06.851Z,20.51
2023-03-21T11:16:41.072Z,20.57
2023-03-21T11:19:17.370Z,20.59
2023-03-21T11:21:44.895Z,20.46
2023-03-21T11:24:16.126Z,20.42
2023-03-21T11:26:48.159Z,20.33
2023-03-21T11:29:34.655Z,20.78
2023-03-21T11:32:13.226Z,20.07
2023-03-21T11:34:47.693Z,20.27
2023-03-21T11:37:46.373Z,19.99
2023-03-21T11:40:19.404Z,19.93
2023-03-21T11:42:51.997Z,19.83
2023-03-21T11:45:22.592Z,20.01
2023-03-21T11:47:51.233Z,20.20
2023-03-21T11:50:27.540Z,20.47
2023-03-21T11:53:06.166Z,20.50
2023-03-21T11:56:03.823Z,19.53
2023-03-21T11:58:52.233Z,19.44
2023-03-21T12:01:24.524Z,19.66
2023-03-21T12:04:04.353Z,19.66
2023-03-21T12:06:55.007Z,19.33
2023-03-21T12:09:39.880Z,20.10
2023-03-21T12:12:39.906Z,20.43
2023-03-21T12:15:31.106Z,20.54
2023-03-21T12:18:29.289Z,20.24
2023-03-21T12:21:04.174Z,20.40
2023-03-21T12:23:39.969Z,20.63
2023-03-21T12:26:19.473Z,20.11
2023-03-21T12:29:19.681Z,19.78
2023-03-21T12:32:16.049Z,19.91
2023-03-21T12:35:09.516Z,19.06
2023-03-21T12:38:03.944Z,19.28
2023-03-21T12:40:42.198Z,19.86
2023-03-21T12:43:42.668Z,19.57
2023-03-21T12:46:34.741Z,19.70
2023-03-21T12:49:07.150Z,20.04
2023-03-21T12:51:39.976Z,19.73
2023-03-21T12:54:35.030Z,19.56
2023-03-21T12:57:19.514Z,20.17
2023-03-21T12:59:50.023Z,20.62
2023-03-21T13:02:31.118Z,20.55
2023-03-21T13:05:06.671Z,20.96
2023-03-21T13:07:38.999Z,21.14
2023-03-21T13:10:17.909Z,21.50
2023-03-21T13:13:10.061Z,21.66
2023-03-21T13:15:48.829Z,22.03
2023-03-21T13:18:37.921Z,22.19
2023-03-21T13:21:31.703Z,22.57
2023-03-21T13:24:19.113Z,22.00
2023-03-21T13:26:52.235Z,20.44
2023-03-21T13:29:29.258Z,20.91
2023-03-21T13:32:06.564Z,21.55
2023-03-21T13:34:33.169Z,21.98
2023-03-21T13:37:01.369Z,22.25
2023-03-21T13:39:29.301Z,21.77
2023-03-21T13:42:03.680Z,21.51
2023-03-21T13:44:43.582Z,21.28
2023-03-21T13:47:30.687Z,21.71
2023-03-21T13:50:22.097Z,21.56
2023-03-21T13:53:04.076Z,21.76
2023-03-21T13:55:41.665Z,21.30
2023-03-21T13:58:34.828Z,21.55
2023-03-21T14:01:10.806Z,21.66
2023-03-21T14:03:39.164Z,21.05
2023-03-21T14:06:06.874Z,21.12
2023-03-21T14:08:37.656Z,21.20
2023-03-21T14:11:10.029Z,21.21
2023-03-21T14:13:48.348Z,21.53
2023-03-21T14:16:17.583Z,21.23
2023-03-21T14:18:54.474Z,21.22
2023-03-21T14:21:50.189Z,20.85
2023-03-21T14:24:17.963Z,20.66
2023-03-21T14:26:49.126Z,20.97
2023-03-21T14:29:35.216Z,21.24
2023-03-21T14:32:03.317Z,20.92
2023-03-21T14:34:33.435Z,21.20
2023-03-21T14:37:00.068Z,21.14
2023-03-21T14:39:29.750Z,20.97
2023-03-21T14:42:03.148Z,20.05
2023-03-21T14:44:58.101Z,20.12
2023-03-21T14:47:27.917Z,20.42
2023-03-21T14:49:55.664Z,20.52
2023-03-21T14:52:30.108Z,20.41
2023-03-21T14:54:57.010Z,20.41
2023-03-21T14:57:28.797Z,19.89
2023-03-21T15:00:00.138Z,19.81
2023-03-21T15:02:31.097Z,19.58
2023-03-21T15:05:05.487Z,19.86
2023-03-21T15:07:34.287Z,19.78
2023-03-21T15:10:05.527Z,19.70
2023-03-21T15:12:33.408Z,19.68
2023-03-21T15:15:01.659Z,19.39
2023-03-21T15:17:29.243Z,19.64
2023-03-21T15:19:55.922Z,19.61
2023-03-21T15:22:54.164Z,19.80
2023-03-21T15:25:27.788Z,19.77
2023-03-21T15:27:56.102Z,19.32
2023-03-21T15:30:26.199Z,19.42
2023-03-21T15:32:53.712Z,19.21
2023-03-21T15:35:25.949Z,18.88
2023-03-21T15:37:56.670Z,18.90
2023-03-21T15:40:31.708Z,18.49
2023-03-21T15:43:07.357Z,18.72
2023-03-21T15:45:34.134Z,18.71
2023-03-21T15:48:03.407Z,18.74
2023-03-21T15:50:41.590Z,18.77
2023-03-21T15:53:14.952Z,19.09
2023-03-21T15:55:48.223Z,19.06
2023-03-21T15:58:19.678Z,18.34
2023-03-21T16:00:57.457Z,18.62
2023-03-21T16:03:27.571Z,18.58
2023-03-21T16:06:15.522Z,18.78
2023-03-21T16:08:44.697Z,18.65
2023-03-21T16:11:19.136Z,18.80
2023-03-21T16:13:46.148Z,18.80
2023-03-21T16:16:19.762Z,18.82
2023-03-21T16:18:46.352Z,18.88
2023-03-21T16:21:14.667Z,18.81
2023-03-21T16:23:41.736Z,18.91
2023-03-21T16:26:14.166Z,18.37
2023-03-21T16:28:40.635Z,18.51
2023-03-21T16:31:17.608Z,18.61
2023-03-21T16:33:44.848Z,18.44
2023-03-21T16:36:29.199Z,18.09
2023-03-21T16:38:55.953Z,18.08
2023-03-21T16:41:24.277Z,18.04
2023-03-21T16:43:52.190Z,18.16
2023-03-21T16:46:26.126Z,17.80
2023-03-21T16:48:56.310Z,17.97
2023-03-21T16:51:31.457Z,18.07
2023-03-21T16:53:58.299Z,18.13
2023-03-21T16:56:27.200Z,18.03
2023-03-21T16:58:54.688Z,18.04
2023-03-21T17:01:25.848Z,17.98
2023-03-21T17:03:53.417Z,17.97
2023-03-21T17:06:25.324Z,17.87
2023-03-21T17:08:53.579Z,17.81
2023-03-21T17:11:23.226Z,17.70
2023-03-21T17:13:52.087Z,17.58
2023-03-21T17:16:23.818Z,17.55
2023-03-21T17:18:51.742Z,17.55
2023-03-21T17:21:20.746Z,17.50
2023-03-21T17:23:47.810Z,17.48
2023-03-21T17:26:23.645Z,17.42
2023-03-21T17:28:50.573Z,17.33
2023-03-21T17:31:19.480Z,17.24
2023-03-21T17:33:46.673Z,17.10
2023-03-21T17:36:18.942Z,17.09
2023-03-21T17:38:46.014Z,16.98
2023-03-21T17:41:14.512Z,16.91
2023-03-21T17:43:41.380Z,16.83
2023-03-21T17:46:13.251Z,16.76
2023-03-21T17:48:39.984Z,16.68
2023-03-21T17:51:06.749Z,16.59
2023-03-21T17:53:33.211Z,16.46
2023-03-21T17:56:00.267Z,16.37
2023-03-21T17:58:26.752Z,16.29
2023-03-21T18:00:53.439Z,16.23
2023-03-21T18:03:20.279Z,16.15
2023-03-21T18:05:46.739Z,16.12
2023-03-21T18:08:13.300Z,16.07
2023-03-21T18:10:41.095Z,16.07
2023-03-21T18:13:08.125Z,16.00
2023-03-21T18:15:35.974Z,15.98
2023-03-21T18:18:04.495Z,15.93
2023-03-21T18:20:57.961Z,15.89
2023-03-21T18:23:19.084Z,15.87
2023-03-21T18:25:45.563Z,15.83
2023-03-21T18:28:12.996Z,15.76
2023-03-21T18:33:27.334Z,15.70
2023-03-21T18:35:58.976Z,15.73
2023-03-21T18:38:27.542Z,15.69
2023-03-21T18:40:54.521Z,15.70
2023-03-21T18:46:08.640Z,15.67
2023-03-21T18:48:35.612Z,15.66
2023-03-21T18:51:02.929Z,15.64
2023-03-21T18:53:29.864Z,15.66
2023-03-21T18:55:57.533Z,15.62
2023-03-21T18:58:25.455Z,15.65
2023-03-21T19:00:53.688Z,15.54
2023-03-21T19:03:34.323Z,15.48
2023-03-21T19:06:03.671Z,15.47
2023-03-21T19:08:32.402Z,15.50
2023-03-21T19:11:03.764Z,15.60
2023-03-21T19:13:33.391Z,15.64
2023-03-21T19:16:02.461Z,15.52
2023-03-21T19:18:49.926Z,15.35
2023-03-21T19:21:19.916Z,15.29
2023-03-21T19:26:33.873Z,15.09
2023-03-21T19:29:00.376Z,15.00
2023-03-21T19:31:27.182Z,14.87
2023-03-21T19:33:53.980Z,14.78
2023-03-21T19:36:22.938Z,14.70
2023-03-21T19:38:49.905Z,14.67
2023-03-21T19:41:16.830Z,14.64
2023-03-21T19:43:53.129Z,14.58
2023-03-21T19:46:23.109Z,14.58
2023-03-21T19:48:50.126Z,14.52
2023-03-21T19:51:32.904Z,14.50
2023-03-21T19:54:03.264Z,14.47
2023-03-21T19:56:31.626Z,14.50
2023-03-21T19:58:58.643Z,14.46
2023-03-21T20:01:25.614Z,14.47
2023-03-21T20:03:52.166Z,14.44
2023-03-21T20:06:19.056Z,14.50
2023-03-21T20:11:32.557Z,14.44
2023-03-21T20:13:59.834Z,14.38
2023-03-21T20:16:33.639Z,14.30
2023-03-21T20:19:00.949Z,14.26
2023-03-21T20:21:33.831Z,14.21
2023-03-21T20:24:06.981Z,14.18
2023-03-21T20:26:34.177Z,14.13
2023-03-21T20:29:33.948Z,14.19
2023-03-21T20:31:47.519Z,14.18
2023-03-21T20:34:14.211Z,14.23
2023-03-21T20:36:43.427Z,14.27
2023-03-21T20:39:10.200Z,14.31
2023-03-21T20:41:36.842Z,14.33
2023-03-21T20:46:50.542Z,14.36
2023-03-21T20:49:17.105Z,14.34
2023-03-21T20:54:30.334Z,14.29
2023-03-21T20:56:57.204Z,14.37
2023-03-21T20:59:27.567Z,14.39
2023-03-21T21:01:55.719Z,14.42
2023-03-21T21:04:23.120Z,14.42
2023-03-21T21:06:53.813Z,14.35
2023-03-21T21:09:20.876Z,14.34
2023-03-21T21:12:06.233Z,14.29
2023-03-21T21:14:35.727Z,14.21
2023-03-21T21:17:15.478Z,14.18
2023-03-21T21:19:49.946Z,14.13
2023-03-21T21:22:17.339Z,14.12
2023-03-21T21:24:44.646Z,14.08
2023-03-21T21:27:11.877Z,14.09
2023-03-21T21:29:38.423Z,14.12
2023-03-21T21:32:05.291Z,14.12
2023-03-21T21:34:32.161Z,14.13
2023-03-21T21:36:58.542Z,14.13
2023-03-21T21:39:26.648Z,14.11
2023-03-21T21:41:54.065Z,14.07
2023-03-21T21:44:20.718Z,14.04
2023-03-21T21:46:47.606Z,14.06
2023-03-21T21:49:14.097Z,14.06
2023-03-21T21:51:41.789Z,14.13
2023-03-21T21:54:08.135Z,14.06
2023-03-21T21:56:38.491Z,14.00
2023-03-21T21:59:05.471Z,13.91
2023-03-21T22:01:38.501Z,13.92
2023-03-21T22:04:08.286Z,13.88
2023-03-21T22:06:34.996Z,13.83
2023-03-21T22:09:06.927Z,13.81
2023-03-21T22:11:33.702Z,13.79
2023-03-21T22:14:00.083Z,13.75
2023-03-21T22:16:26.589Z,13.79
2023-03-21T22:18:53.056Z,13.82
2023-03-21T22:21:19.487Z,13.83
2023-03-21T22:23:45.984Z,13.91
2023-03-21T22:26:12.673Z,13.90
2023-03-21T22:28:42.172Z,13.84
2023-03-21T22:31:14.499Z,13.86
2023-03-21T22:33:41.891Z,13.81
2023-03-21T22:36:09.108Z,13.76
2023-03-21T22:38:38.178Z,13.63
2023-03-21T22:41:05.927Z,13.66
2023-03-21T22:43:34.171Z,13.60
2023-03-21T22:46:04.697Z,13.56
2023-03-21T22:48:31.763Z,13.52
2023-03-21T22:50:59.596Z,13.51
2023-03-21T22:53:26.221Z,13.45
2023-03-21T22:55:52.855Z,13.45
2023-03-21T22:58:19.255Z,13.40
2023-03-21T23:00:45.896Z,13.37
2023-03-21T23:03:14.625Z,13.29
2023-03-21T23:05:41.390Z,13.24
2023-03-21T23:08:08.409Z,13.23
2023-03-21T23:10:38.070Z,13.18
2023-03-21T23:13:04.734Z,13.16
2023-03-21T23:15:31.193Z,13.13
2023-03-21T23:17:57.535Z,13.10
2023-03-21T23:20:23.977Z,13.03
2023-03-21T23:22:50.530Z,12.91
2023-03-21T23:25:16.960Z,12.89
2023-03-21T23:27:43.363Z,12.82
2023-03-21T23:30:10.176Z,12.82
2023-03-21T23:32:36.857Z,12.78
2023-03-21T23:35:03.590Z,12.75
2023-03-21T23:37:30.080Z,12.71
2023-03-21T23:39:56.554Z,12.68
2023-03-21T23:42:24.042Z,12.67
2023-03-21T23:44:50.760Z,12.61
2023-03-21T23:47:17.380Z,12.55
2023-03-21T23:49:49.174Z,12.56
2023-03-21T23:52:16.641Z,12.56
2023-03-21T23:54:43.315Z,12.57
2023-03-21T23:57:10.334Z,12.60
2023-03-21T23:59:36.738Z,12.55
